Flight Track Log - Related Links

Times and Time Zones

All times are in EDT time to prevent confusion due to time zone crossing. See the SWA3408 flight status page for this flight to view local times or setup timezone preferences in your user account.

Time Position Orientation Groundspeed Altitude Reporting Facility
EDT Latitude Longitude Course Direction KTS MPH feet Rate Location/Type
Thu 12:08:29 AM 37.3833 -121.9500 349° North 171 197 2,000  Level Northern Cal TRACON
Thu 12:09:29 AM 37.4500 -121.9667 349° North 236 272 5,000 2,550 Climbing Northern Cal TRACON
Thu 12:10:29 AM 37.4500 -121.8833 90° East 280 322 7,100 3,100 Climbing Northern Cal TRACON
Thu 12:11:29 AM 37.4167 -121.7833 113° Southeast 309 356 11,200 3,250 Climbing Northern Cal TRACON
Thu 12:12:29 AM 37.3833 -121.6667 110° East 397 457 13,600 2,518 Climbing Northern Cal TRACON
Thu 12:13:21 AM 37.3586 -121.5700 108° East 409 471 15,900 3,053 Climbing Oakland Center
Thu 12:14:23 AM 37.3164 -121.4108 108° East 430 495 19,400 3,073 Climbing Oakland Center
Thu 12:15:24 AM 37.2750 -121.2619 109° East 449 517 22,200 2,557 Climbing Oakland Center
Thu 12:16:25 AM 37.2336 -121.1011 108° East 477 549 24,600 2,754 Climbing Oakland Center
Thu 12:17:26 AM 37.1894 -120.9403 109° East 487 560 27,800 2,878 Climbing Oakland Center
Thu 12:18:28 AM 37.1475 -120.7797 108° East 485 558 30,500 2,537 Climbing Oakland Center
Thu 12:19:29 AM 37.1067 -120.5861 105° East 483 556 33,000 1,230 Climbing Oakland Center
Thu 12:20:30 AM 37.0953 -120.4125 95° East 498 573 33,000  Level Oakland Center
Thu 12:21:31 AM 37.0847 -120.2389 94° East 502 578 33,000  Level Oakland Center
Thu 12:22:32 AM 37.0733 -120.0689 95° East 504 580 33,000  Level Oakland Center
Thu 12:23:33 AM 37.0622 -119.8928 94° East 506 582 33,000 541 Level Oakland Center
Thu 12:24:34 AM 37.0494 -119.7164 95° East 508 585 34,100 1,805 Climbing Oakland Center
Thu 12:25:36 AM 37.0381 -119.5475 95° East 489 563 36,700 1,415 Climbing Oakland Center
Thu 12:26:37 AM 37.0261 -119.3792 95° East 486 559 37,000 148 Climbing Oakland Center
Thu 12:27:38 AM 37.0133 -119.2092 95° East 489 563 37,000  Level Oakland Center
Thu 12:28:39 AM 36.9994 -119.0361 96° East 495 570 37,000  Level Oakland Center
Thu 12:29:40 AM 36.9836 -118.8328 96° East 493 567 37,000  Level Oakland Center
Thu 12:30:41 AM 36.9689 -118.6614 96° East 493 567 37,000  Level Oakland Center
Thu 12:31:42 AM 36.9572 -118.4961 95° East 485 558 37,000  Level Oakland Center
Thu 12:32:44 AM 36.9444 -118.3383 96° East 480 552 37,000  Level Oakland Center
Thu 12:33:50 AM 36.9272 -118.1358 96° East 486 559 37,000  Level Los Angeles Center
Thu 12:34:52 AM 36.9136 -117.9700 96° East 484 557 37,000  Level Los Angeles Center
Thu 12:35:47 AM 36.9022 -117.8414 96° East 479 551 37,000  Level Oakland Center
Thu 12:36:48 AM 36.8869 -117.6747 96° East 482 555 37,000 -1,770 Level Oakland Center
Thu 12:37:49 AM 36.8700 -117.4756 96° East 483 556 33,400 -2,951 Descending Oakland Center
Thu 12:38:50 AM 36.8542 -117.3092 97° East 483 556 31,000 -1,180 Descending Oakland Center
Thu 12:39:51 AM 36.8364 -117.1389 97° East 487 560 31,000  Level Oakland Center
Thu 12:40:52 AM 36.7733 -116.9914 118° Southeast 482 555 31,000  Level Oakland Center
Thu 12:42:01 AM 36.6878 -116.8222 122° Southeast 478 550 31,000  Level Los Angeles Center
Thu 12:43:03 AM 36.6208 -116.6956 123° Southeast 478 550 31,000 -98 Level Los Angeles Center
Thu 12:44:04 AM 36.5494 -116.5564 123° Southeast 477 549 30,800 -2,244 Descending Los Angeles Center
Thu 12:45:06 AM 36.4769 -116.4203 123° Southeast 474 545 26,400 -3,854 Descending Los Angeles Center
Thu 12:46:07 AM 36.4056 -116.2842 123° Southeast 472 543 22,900 2,262 Descending Los Angeles Center
Thu 12:47:08 AM 36.3264 -116.1311 123° Southeast 456 525 31,000 3,951 Climbing Los Angeles Center
Thu 12:48:10 AM 36.2642 -116.0125 123° Southeast 419 482 31,000 -8,257 Level Los Angeles Center
Thu 12:48:57 AM 36.2156 -115.9317 127° Southeast 391 450 16,000 -8,389 Descending Los Angeles Center
Thu 12:49:58 AM 36.1756 -115.8247 115° Southeast 340 391 15,900 -99 Descending Los Angeles Center
Thu 12:50:58 AM 36.1414 -115.7133 111° Southeast 327 376 15,800 -893 Descending Los Angeles Center
Thu 12:51:59 AM 36.1058 -115.6078 113° Southeast 332 382 14,100 -1,641 Descending Los Angeles Center
Thu 12:53:06 AM 36.0708 -115.4944 111° Southeast 326 375 12,300 -1,500 Descending Los Angeles Center
Thu 12:54:07 AM 36.0353 -115.3889 113° Southeast 305 351 10,900 -934 Descending Los Angeles Center
Thu 12:55:08 AM 36.0256 -115.2939 97° East 273 314 10,400 -443 Descending Los Angeles Center
Thu 12:56:09 AM 36.0189 -115.2136 96° East 226 260 10,000 -678 Descending Los Angeles Center
Thu 12:57:03 AM 36.0161 -115.1508 93° East 202 232 9,100 -1,043 Descending Los Angeles Center
Thu 12:58:04 AM 36.0103 -115.0836 96° East 199 229 8,000 -1,082 Descending Los Angeles Center
Thu 12:59:05 AM 36.0069 -115.0103 93° East 199 229 6,900 -942 Descending Los Angeles Center
Thu 01:00:05 AM 36.0031 -114.9422 94° East 197 227 6,100 -709 Descending Los Angeles Center
Thu 01:01:12 AM 35.9978 -114.8697 95° East 200 230 5,400 -328 Descending Los Angeles Center
Thu 01:02:13 AM 36.0508 -114.8547 13° North 205 236 5,400 -49 Level Los Angeles Center
Thu 01:03:14 AM 36.0725 -114.9139 294° West 192 221 5,300 -614 Descending Los Angeles Center
Thu 01:04:20 AM 36.0736 -114.9881 271° West 192 221 4,100 -897 Descending Los Angeles Center
Thu 01:06:28 AM 36.0728 -115.1028 270° West 136 157 2,400 -797 Descending Los Angeles Center
Thu 01:08:00 AM 36.0667 -115.1500 270° West  Level FlightAware Approximate
Thu 01:15:00 AM 36.0801 -115.1523 270° West  Level Estimated

Login

Don't have an account? Register now (free) for customized features, flight alerts, and more!